Time;durP1;ratioP1;P1;durP2;ratioP2;P2;SDS_P1;SDS_P2;PMS_P1;PMS_P2;Temp;Humidity;BMP_temperature;BMP_pressure;BME280_temperature;BME280_humidity;BME280_pressure;Samples;Min_cycle;Max_cycle;Signal;HPM_P1;HPM_P2
2024/02/29 00:00:04;;;;;;;26.33;19.80;;;;;;;7.97;73.51;95582.41;5011890;28;20207;-85
2024/02/29 00:02:33;;;;;;;24.00;19.63;;;;;;;8.08;73.12;95568.44;5007890;28;20269;-85
2024/02/29 00:05:31;;;;;;;25.50;19.97;;;;;;;8.19;72.86;95563.00;5015289;28;20234;-85
2024/02/29 00:22:51;;;;;;;27.87;21.27;;;;;;;8.26;73.41;95581.13;4985169;28;20206;-85
2024/02/29 00:25:50;;;;;;;27.03;20.57;;;;;;;8.25;73.08;95571.81;4932023;29;20209;-85
2024/02/29 00:35:31;;;;;;;29.60;21.90;;;;;;;8.32;72.78;95576.16;4965318;28;20224;-85
2024/02/29 00:38:33;;;;;;;29.80;21.97;;;;;;;8.16;73.24;95585.59;4978548;28;20313;-84
2024/02/29 01:21:16;;;;;;;28.07;21.30;;;;;;;7.68;76.58;95640.22;4891881;29;20207;-85
2024/02/29 01:24:25;;;;;;;28.33;21.20;;;;;;;7.69;76.70;95634.13;4873639;29;20306;-85
2024/02/29 01:33:16;;;;;;;29.23;20.97;;;;;;;7.79;75.91;95598.91;4891453;29;20226;-85
2024/02/29 01:39:32;;;;;;;27.87;21.13;;;;;;;7.65;75.85;95568.78;4965166;28;20239;-85
2024/02/29 01:49:14;;;;;;;26.20;20.40;;;;;;;7.43;76.89;95593.22;5016576;28;20195;-85
2024/02/29 01:55:28;;;;;;;27.07;19.93;;;;;;;7.45;76.86;95588.75;4986161;28;20270;-85
2024/02/29 01:58:17;;;;;;;26.07;20.00;;;;;;;7.49;76.51;95584.94;5009770;28;20211;-85
2024/02/29 02:01:10;;;;;;;26.97;20.67;;;;;;;7.43;76.72;95581.22;4967747;28;20744;-85
2024/02/29 02:10:28;;;;;;;27.03;19.93;;;;;;;7.67;76.52;95571.97;5005294;28;20743;-85
2024/02/29 02:20:06;;;;;;;28.00;20.30;;;;;;;7.72;76.01;95556.91;4971270;28;20298;-85
2024/02/29 02:36:25;;;;;;;27.97;21.20;;;;;;;7.73;75.55;95532.88;5008738;28;20259;-85
2024/02/29 02:42:33;;;;;;;26.87;20.80;;;;;;;7.66;75.81;95526.81;5002011;28;20221;-84
2024/02/29 02:45:38;;;;;;;29.57;21.37;;;;;;;7.66;75.87;95524.25;5003174;28;20651;-84
2024/02/29 02:57:36;;;;;;;26.97;21.13;;;;;;;7.71;75.72;95509.97;4920987;29;20336;-85
2024/02/29 03:03:36;;;;;;;28.50;20.63;;;;;;;7.91;75.44;95505.34;5010108;28;20289;-85
2024/02/29 03:06:38;;;;;;;29.77;21.17;;;;;;;7.81;75.66;95515.75;4957193;28;20259;-85
2024/02/29 03:09:42;;;;;;;28.60;21.07;;;;;;;7.74;76.63;95529.38;5008622;28;20213;-85
2024/02/29 03:13:08;;;;;;;29.63;21.07;;;;;;;7.78;76.38;95526.34;4991911;28;20226;-85
2024/02/29 03:16:19;;;;;;;;;;;;;;;;;;;;;
2024/02/29 03:22:25;;;;;;;26.87;20.60;;;;;;;7.74;75.71;95503.75;4975241;28;20207;-85
2024/02/29 03:25:05;;;;;;;27.33;21.00;;;;;;;7.80;76.02;95505.66;4993562;28;20258;-85
2024/02/29 03:28:27;;;;;;;28.37;20.90;;;;;;;7.85;75.07;95478.59;5008731;28;20226;-85
2024/02/29 03:34:25;;;;;;;29.43;21.37;;;;;;;7.81;75.40;95479.09;5008267;28;20563;-85
2024/02/29 03:37:27;;;;;;;;;;;;;;;;;;;;;
2024/02/29 03:40:03;;;;;;;28.43;21.37;;;;;;;7.91;75.89;95501.00;5012479;28;20195;-85
2024/02/29 03:51:54;;;;;;;28.70;22.00;;;;;;;7.90;76.73;95519.09;4994916;28;20289;-86
2024/02/29 03:55:09;;;;;;;27.40;20.63;;;;;;;7.82;76.11;95498.63;5012263;28;20613;-85
2024/02/29 03:58:19;;;;;;;26.47;20.13;;;;;;;7.91;75.94;95500.19;5006046;28;20305;-85
2024/02/29 04:11:20;;;;;;;29.40;21.73;;;;;;;7.56;77.29;95514.94;4971542;28;20219;-85
2024/02/29 04:14:13;;;;;;;29.87;21.43;;;;;;;7.66;77.60;95521.69;5012107;28;20211;-85
2024/02/29 04:17:19;;;;;;;30.50;21.70;;;;;;;7.71;77.00;95504.06;5011897;28;20219;-86
2024/02/29 04:26:36;;;;;;;27.80;20.03;;;;;;;7.55;76.84;95477.47;4896267;29;20316;-84
2024/02/29 04:32:51;;;;;;;;;;;;;;;;;;;;;
2024/02/29 04:35:39;;;;;;;29.33;21.23;;;;;;;7.30;77.93;95501.50;4918742;28;20221;-85
2024/02/29 04:44:36;;;;;;;28.47;20.60;;;;;;;7.27;79.18;95520.53;4949924;28;20205;-86
2024/02/29 04:50:19;;;;;;;29.23;21.10;;;;;;;7.25;79.28;95525.00;4968318;28;20317;-85
2024/02/29 04:57:05;;;;;;;;;;;;;;;;;;;;;
2024/02/29 05:00:08;;;;;;;29.80;20.83;;;;;;;7.38;78.75;95506.63;5032914;28;20262;-84
2024/02/29 05:06:11;;;;;;;;;;;;;;;;;;;;;
2024/02/29 05:09:28;;;;;;;;;;;;;;;;;;;;;
2024/02/29 05:16:37;;;;;;;27.50;19.87;;;;;;;7.52;78.30;95485.47;4940787;28;20215;-85
2024/02/29 05:19:43;;;;;;;26.77;20.67;;;;;;;7.60;77.91;95482.13;4912102;29;20214;-83
2024/02/29 05:25:50;;;;;;;30.07;20.83;;;;;;;7.63;77.33;95464.69;4900698;29;20833;-85
2024/02/29 05:28:41;;;;;;;29.93;21.20;;;;;;;7.52;77.52;95466.75;4950193;29;20229;-85
2024/02/29 05:31:40;;;;;;;;;;;;;;;;;;;;;
2024/02/29 05:40:57;;;;;;;27.57;20.70;;;;;;;7.39;78.47;95479.25;5006559;28;20245;-85
2024/02/29 05:43:54;;;;;;;28.67;20.83;;;;;;;7.39;78.29;95495.41;5030502;28;20288;-86
2024/02/29 05:46:39;;;;;;;29.07;20.90;;;;;;;7.39;78.76;95486.94;5045628;22;20272;-84
2024/02/29 05:49:34;;;;;;;30.40;21.37;;;;;;;7.40;78.63;95485.97;5022020;28;20672;-85
2024/02/29 05:52:33;;;;;;;30.77;21.27;;;;;;;7.25;79.71;95511.41;4967842;28;20531;-86
2024/02/29 05:55:45;;;;;;;31.03;21.53;;;;;;;7.19;80.06;95517.16;4967121;28;20204;-85
2024/02/29 06:02:01;;;;;;;;;;;;;;;;;;;;;
2024/02/29 06:05:24;;;;;;;31.10;22.00;;;;;;;7.30;80.17;95522.00;5008822;28;20210;-85
2024/02/29 06:11:54;;;;;;;;;;;;;;;;;;;;;
2024/02/29 06:25:40;;;;;;;36.47;23.20;;;;;;;7.44;81.72;95559.78;4988029;28;20220;-85
2024/02/29 06:31:41;;;;;;;34.93;23.50;;;;;;;7.26;82.22;95572.72;5018018;28;20241;-85
2024/02/29 06:34:55;;;;;;;;;;;;;;;;;;;;;
2024/02/29 06:37:50;;;;;;;33.97;23.60;;;;;;;7.12;83.55;95600.69;4967280;28;20224;-85
2024/02/29 06:40:36;;;;;;;36.33;24.37;;;;;;;7.18;83.35;95584.66;4901794;28;20230;-86
2024/02/29 06:49:23;;;;;;;37.00;24.87;;;;;;;7.27;83.28;95588.88;5019791;28;21050;-85
2024/02/29 06:52:12;;;;;;;39.93;25.57;;;;;;;7.25;83.19;95578.78;5030648;28;20218;-85
2024/02/29 06:57:37;;;;;;;38.53;25.30;;;;;;;7.28;83.53;95593.03;5026612;28;20218;-85
2024/02/29 07:00:53;;;;;;;;;;;;;;;;;;;;;
2024/02/29 07:06:47;;;;;;;37.10;23.60;;;;;;;7.31;85.00;95614.97;5028059;28;20280;-86
2024/02/29 07:19:25;;;;;;;34.10;22.93;;;;;;;7.51;83.37;95570.97;4944223;28;20221;-84
2024/02/29 07:22:35;;;;;;;37.07;24.50;;;;;;;7.47;83.43;95566.34;5021719;28;20211;-85
2024/02/29 07:28:29;;;;;;;35.27;24.13;;;;;;;7.63;82.75;95551.81;5016464;28;20613;-85
2024/02/29 07:31:09;;;;;;;37.73;24.60;;;;;;;7.65;82.52;95543.97;5028308;28;20193;-86
2024/02/29 07:34:00;;;;;;;37.17;24.80;;;;;;;7.70;82.63;95546.81;5031283;28;20218;-85
2024/02/29 07:43:09;;;;;;;35.00;23.63;;;;;;;7.72;82.34;95533.84;5025764;28;20209;-86
2024/02/29 07:45:40;;;;;;;35.20;24.13;;;;;;;7.73;81.98;95523.44;4971323;28;20299;-84
2024/02/29 07:52:43;;;;;;;37.20;24.00;;;;;;;7.84;81.85;95519.78;4969341;28;20221;-85
2024/02/29 07:56:01;;;;;;;31.80;22.57;;;;;;;7.84;81.54;95514.66;4970212;28;20208;-84
2024/02/29 08:01:30;;;;;;;34.60;24.00;;;;;;;7.91;81.53;95513.03;4970757;28;20255;-85
2024/02/29 08:04:44;;;;;;;;;;;;;;;;;;;;;
2024/02/29 08:07:37;;;;;;;34.43;23.13;;;;;;;8.09;80.69;95494.88;5013624;28;20600;-85
2024/02/29 08:10:15;;;;;;;40.20;23.87;;;;;;;8.16;80.43;95488.16;5032338;28;20230;-85
2024/02/29 08:20:43;;;;;;;29.83;22.03;;;;;;;8.19;80.12;95455.28;4949856;28;20280;-85
2024/02/29 08:33:36;;;;;;;33.20;22.77;;;;;;;8.00;81.61;95496.69;5030829;28;20687;-85
2024/02/29 08:36:23;;;;;;;30.57;22.00;;;;;;;8.11;81.48;95490.41;5027860;28;20206;-85
2024/02/29 08:42:11;;;;;;;;;;;;;;;;;;;;;
2024/02/29 08:47:31;;;;;;;31.50;21.90;;;;;;;8.23;81.04;95458.34;5030235;28;20262;-85
2024/02/29 08:50:22;;;;;;;31.20;22.07;;;;;;;8.28;80.37;95449.16;5031223;28;20289;-85
2024/02/29 08:52:51;;;;;;;32.20;22.57;;;;;;;8.32;80.27;95437.63;5032483;28;20258;-85
2024/02/29 08:55:27;;;;;;;28.97;21.20;;;;;;;8.39;79.69;95414.69;5031408;28;20207;-85
2024/02/29 08:58:23;;;;;;;31.93;22.37;;;;;;;8.35;79.08;95395.47;5032902;28;20245;-85
2024/02/29 09:00:56;;;;;;;31.60;20.50;;;;;;;8.47;79.20;95406.94;5032179;28;20198;-86
2024/02/29 09:06:22;;;;;;;32.87;21.70;;;;;;;8.66;77.62;95355.19;4970840;28;20283;-85
2024/02/29 09:08:51;;;;;;;29.00;21.43;;;;;;;8.60;77.56;95345.63;5022144;28;20248;-85
2024/02/29 09:14:39;;;;;;;28.93;21.40;;;;;;;8.85;76.97;95320.56;5020249;28;20210;-84
2024/02/29 09:23:26;;;;;;;29.70;19.10;;;;;;;8.76;75.60;95278.00;5015486;28;20699;-84
2024/02/29 09:26:37;;;;;;;25.37;18.43;;;;;;;8.88;75.04;95243.22;5012718;28;20248;-85
2024/02/29 09:29:11;;;;;;;24.97;16.90;;;;;;;8.92;74.28;95210.31;4998968;28;20223;-85
2024/02/29 09:31:58;;;;;;;22.23;16.30;;;;;;;9.16;73.48;95191.28;5010402;28;20723;-85
2024/02/29 09:37:56;;;;;;;19.10;14.60;;;;;;;9.28;71.58;95111.03;4950270;29;20862;-85
2024/02/29 09:41:16;;;;;;;13.93;11.37;;;;;;;9.11;70.43;95058.28;5011001;28;20199;-85
2024/02/29 09:57:56;;;;;;;18.17;15.20;;;;;;;9.04;71.74;95101.06;5007913;28;20234;-86
2024/02/29 10:00:44;;;;;;;26.10;17.50;;;;;;;9.03;73.00;95145.69;4950912;29;20216;-84
2024/02/29 10:06:32;;;;;;;25.83;18.10;;;;;;;9.19;72.91;95137.00;4896874;29;20237;-85
2024/02/29 10:12:36;;;;;;;;;;;;;;;;;;;;;
2024/02/29 10:21:28;;;;;;;22.57;15.90;;;;;;;8.96;73.01;95142.22;4876236;29;20238;-86
2024/02/29 10:24:41;;;;;;;25.37;17.10;;;;;;;8.87;74.22;95180.00;4917589;29;20699;-86
2024/02/29 10:33:21;;;;;;;22.17;16.23;;;;;;;8.70;75.82;95229.09;4927696;29;20236;-83
2024/02/29 10:39:32;;;;;;;23.03;15.13;;;;;;;9.21;81.55;95369.59;4962459;28;20238;-84
2024/02/29 10:48:50;;;;;;;21.80;16.40;;;;;;;9.35;71.99;95057.97;4960413;28;20278;-85
2024/02/29 12:01:59;;;;;;;18.47;14.17;;;;;;;10.70;65.24;94693.09;4660535;30;20224;-85
2024/02/29 12:04:52;;;;;;;17.47;14.13;;;;;;;10.53;66.15;94724.59;4712637;30;20276;-85
2024/02/29 12:07:40;;;;;;;17.77;14.10;;;;;;;10.67;66.39;94757.84;4739961;30;20315;-85
2024/02/29 12:10:11;;;;;;;16.20;13.13;;;;;;;10.94;66.50;94765.59;4743699;30;20588;-84
2024/02/29 12:12:42;;;;;;;16.47;13.03;;;;;;;11.14;65.63;94721.78;4757626;29;20227;-85
2024/02/29 12:21:42;;;;;;;17.93;13.47;;;;;;;11.61;64.45;94666.53;4877671;29;20306;-84
2024/02/29 12:27:11;;;;;;;23.27;17.43;;;;;;;12.14;62.51;94571.59;4939547;28;20764;-84
2024/02/29 12:30:00;;;;;;;16.57;13.53;;;;;;;12.10;61.08;94486.09;4975213;28;20677;-84
2024/02/29 12:32:32;;;;;;;17.77;14.13;;;;;;;11.88;61.09;94456.53;4975592;28;20210;-84
2024/02/29 12:35:35;;;;;;;18.80;12.70;;;;;;;11.88;61.88;94508.09;4970075;28;20209;-84
2024/02/29 12:41:55;;;;;;;19.23;13.73;;;;;;;12.51;60.23;94419.38;4932351;28;20593;-84
2024/02/29 12:44:36;;;;;;;17.33;13.00;;;;;;;12.93;59.93;94397.75;4868258;29;20215;-85
2024/02/29 12:47:10;;;;;;;18.73;13.40;;;;;;;13.03;58.37;94292.09;4955281;28;20236;-85
2024/02/29 12:50:07;;;;;;;20.03;14.10;;;;;;;12.66;58.06;94251.94;4966686;28;20206;-84
2024/02/29 12:53:07;;;;;;;;;;;;;;;;;;;;;
2024/02/29 12:56:29;;;;;;;;;;;;;;;;;;;;;
2024/02/29 12:58:58;;;;;;;21.23;15.00;;;;;;;12.87;59.62;94331.50;4951027;28;20599;-84
2024/02/29 13:05:09;;;;;;;20.37;13.80;;;;;;;13.07;58.40;94261.44;4970080;28;20251;-85
2024/02/29 13:08:24;;;;;;;20.20;13.90;;;;;;;12.85;58.21;94225.00;4966604;28;20212;-84
2024/02/29 13:10:56;;;;;;;17.00;13.40;;;;;;;12.90;58.84;94269.03;4975043;28;20208;-84
2024/02/29 13:13:38;;;;;;;33.80;26.77;;;;;;;13.18;58.69;94272.78;4974690;28;20662;-84
2024/02/29 13:16:14;;;;;;;27.93;18.53;;;;;;;13.35;58.30;94256.38;4974241;28;20259;-84
2024/02/29 13:21:46;;;;;;;22.83;13.63;;;;;;;13.81;57.32;94214.16;4967536;28;20208;-84
2024/02/29 13:28:02;;;;;;;20.65;13.68;;;;;;;14.01;55.61;94088.75;5018316;22;20587;-84
2024/02/29 13:38:02;;;;;;;20.33;14.32;;;;;;;14.21;55.10;94034.72;4897951;29;20227;-85
2024/02/29 13:44:47;;;;;;;17.67;14.00;;;;;;;14.05;55.83;94087.25;4921805;29;20202;-85
2024/02/29 13:47:48;;;;;;;20.25;14.32;;;;;;;14.06;56.17;94087.00;4894117;29;20312;-84
2024/02/29 13:50:42;;;;;;;17.13;13.65;;;;;;;14.23;55.88;94086.25;4915250;29;20209;-85
2024/02/29 13:56:22;;;;;;;18.70;13.70;;;;;;;14.34;55.25;94036.97;4895692;29;20226;-84
2024/02/29 13:59:28;;;;;;;22.33;14.20;;;;;;;14.27;55.39;94033.75;4889158;29;20217;-85
2024/02/29 14:08:32;;;;;;;31.40;20.92;;;;;;;13.62;57.05;94122.22;5009637;28;20230;-86
2024/02/29 14:11:17;;;;;;;23.80;15.63;;;;;;;13.70;57.50;94157.25;5010181;28;20265;-85
2024/02/29 14:13:59;;;;;;;22.13;16.23;;;;;;;13.87;57.12;94142.56;5009846;28;20686;-84
2024/02/29 14:16:39;;;;;;;23.65;17.10;;;;;;;13.93;57.04;94122.75;5008718;28;20253;-85
2024/02/29 14:21:50;;;;;;;23.13;17.48;;;;;;;13.42;58.21;94176.13;5008943;28;20621;-84
2024/02/29 14:24:17;;;;;;;24.30;17.73;;;;;;;13.57;58.48;94198.91;5011253;28;20668;-85
2024/02/29 14:26:48;;;;;;;24.98;18.42;;;;;;;13.69;57.98;94173.78;5012487;28;20614;-84
2024/02/29 14:29:26;;;;;;;31.45;19.27;;;;;;;13.36;58.16;94162.31;5007021;28;20286;-85
2024/02/29 14:32:12;;;;;;;38.80;19.33;;;;;;;13.37;58.50;94187.16;5015092;28;20633;-85
2024/02/29 14:35:15;;;;;;;24.53;18.63;;;;;;;13.46;58.32;94177.25;5017662;28;20238;-85
2024/02/29 14:37:42;;;;;;;41.47;29.97;;;;;;;13.43;58.49;94185.47;5016844;28;20218;-85
2024/02/29 14:40:10;;;;;;;32.40;27.73;;;;;;;13.56;58.41;94184.41;4999267;28;20195;-83
2024/02/29 14:42:37;;;;;;;23.30;18.90;;;;;;;13.57;58.15;94173.84;5007839;28;20218;-85
2024/02/29 14:45:04;;;;;;;24.17;18.83;;;;;;;13.56;58.44;94167.09;5009213;28;20206;-85
2024/02/29 14:47:30;;;;;;;26.67;19.60;;;;;;;13.47;58.57;94177.00;5009745;28;20226;-84
2024/02/29 14:49:58;;;;;;;26.63;20.00;;;;;;;13.37;58.64;94174.22;5007619;28;20210;-85
2024/02/29 14:52:26;;;;;;;29.02;19.85;;;;;;;13.42;59.05;94200.19;5009229;28;20210;-86
2024/02/29 14:54:53;;;;;;;29.43;19.33;;;;;;;13.35;59.04;94204.69;5009358;28;20577;-85
2024/02/29 14:57:21;;;;;;;41.03;19.90;;;;;;;13.16;59.65;94213.59;5009215;28;20736;-85
2024/02/29 14:59:47;;;;;;;31.67;19.47;;;;;;;13.11;59.68;94221.19;5010701;28;20226;-85
2024/02/29 15:02:14;;;;;;;28.27;19.13;;;;;;;13.19;59.73;94226.06;5009557;28;20676;-85
2024/02/29 15:04:41;;;;;;;25.80;19.27;;;;;;;13.03;59.58;94204.25;5005318;28;20266;-85
2024/02/29 15:07:09;;;;;;;26.77;19.53;;;;;;;12.68;60.14;94224.88;5011175;28;20219;-84
2024/02/29 15:09:38;;;;;;;26.37;19.37;;;;;;;12.27;61.73;94294.56;5011498;28;20233;-84
2024/02/29 15:12:05;;;;;;;28.73;20.40;;;;;;;12.10;62.20;94333.09;5018592;28;20241;-84
2024/02/29 15:14:32;;;;;;;30.50;18.07;;;;;;;12.08;64.91;94471.81;4999561;28;20218;-84
2024/02/29 15:16:58;;;;;;;34.43;19.23;;;;;;;12.05;63.30;94398.22;5011839;28;20317;-85
2024/02/29 15:19:25;;;;;;;30.87;19.47;;;;;;;12.23;62.91;94384.53;5011784;28;20217;-85
2024/02/29 15:21:52;;;;;;;27.20;19.33;;;;;;;12.27;62.64;94367.63;5009024;28;20686;-86
2024/02/29 15:24:20;;;;;;;26.27;19.63;;;;;;;11.84;63.77;94403.00;5010887;28;20214;-84
2024/02/29 15:26:47;;;;;;;35.33;20.53;;;;;;;11.64;64.52;94442.59;5011149;28;20304;-85
2024/02/29 15:29:14;;;;;;;28.93;20.13;;;;;;;11.42;65.35;94467.94;5013402;28;20242;-85
2024/02/29 15:31:41;;;;;;;27.67;20.33;;;;;;;11.28;66.04;94494.00;5014779;28;20203;-85
2024/02/29 15:34:08;;;;;;;27.47;19.93;;;;;;;11.30;66.21;94500.53;5014379;28;20257;-85
2024/02/29 15:36:34;;;;;;;26.40;19.83;;;;;;;11.28;66.24;94487.06;5009419;28;20219;-85
2024/02/29 15:39:02;;;;;;;26.83;19.80;;;;;;;11.10;66.91;94525.63;5013403;28;20206;-85
2024/02/29 15:41:29;;;;;;;25.57;19.40;;;;;;;10.82;68.01;94548.31;5014402;28;20203;-85
2024/02/29 15:43:59;;;;;;;27.27;20.07;;;;;;;10.98;68.01;94555.56;5013687;28;20207;-85
2024/02/29 15:46:25;;;;;;;29.37;19.07;;;;;;;11.16;67.78;94539.47;5013924;28;20202;-85
2024/02/29 15:48:52;;;;;;;26.90;19.00;;;;;;;11.29;67.26;94508.47;5024661;28;20199;-85
2024/02/29 15:51:18;;;;;;;29.40;19.17;;;;;;;11.42;66.39;94490.34;5035073;28;20211;-85
2024/02/29 15:53:45;;;;;;;25.83;18.90;;;;;;;11.44;66.79;94496.09;5020210;28;20223;-85
2024/02/29 15:56:14;;;;;;;27.03;19.73;;;;;;;11.48;66.45;94484.38;5013470;28;20677;-85
2024/02/29 15:59:06;;;;;;;24.43;17.80;;;;;;;11.49;66.34;94474.84;5013503;28;20569;-85
2024/02/29 16:01:47;;;;;;;21.80;18.50;;;;;;;11.52;66.09;94464.13;5013473;28;20259;-85
2024/02/29 16:04:45;;;;;;;24.73;18.70;;;;;;;11.50;66.21;94463.53;5013755;28;20194;-85
2024/02/29 16:07:48;;;;;;;24.70;18.30;;;;;;;11.48;66.31;94456.03;4985578;28;20331;-85
2024/02/29 16:13:18;;;;;;;26.20;19.27;;;;;;;11.35;66.57;94463.84;5011818;28;20199;-84
2024/02/29 16:15:52;;;;;;;27.53;19.77;;;;;;;11.22;66.84;94459.56;5013509;28;20242;-85
2024/02/29 16:18:27;;;;;;;27.90;19.00;;;;;;;11.20;66.78;94471.84;5014217;28;20226;-85
2024/02/29 16:20:56;;;;;;;25.00;18.57;;;;;;;11.15;67.34;94483.78;5013134;28;20207;-84
2024/02/29 16:23:23;;;;;;;22.33;18.17;;;;;;;11.16;67.64;94496.44;5013168;28;20294;-85
2024/02/29 16:25:52;;;;;;;24.40;17.97;;;;;;;11.08;67.93;94517.31;5011844;28;20222;-84
2024/02/29 16:28:20;;;;;;;24.53;18.53;;;;;;;11.05;68.31;94528.00;5006021;28;20728;-85
2024/02/29 16:30:50;;;;;;;26.00;18.53;;;;;;;11.00;68.25;94520.91;5009529;28;20741;-85
2024/02/29 16:45:34;;;;;;;23.27;17.80;;;;;;;10.79;69.02;94533.25;4937192;28;20954;-84
2024/02/29 16:48:11;;;;;;;27.37;19.07;;;;;;;10.71;69.57;94534.28;4953721;28;20254;-85
2024/02/29 16:50:38;;;;;;;26.70;18.23;;;;;;;10.71;69.41;94535.06;5031039;28;20714;-85
2024/02/29 16:53:05;;;;;;;23.87;17.90;;;;;;;10.67;69.74;94540.81;5025410;28;20281;-84
2024/02/29 16:55:32;;;;;;;23.90;17.40;;;;;;;10.63;69.98;94549.94;5033922;28;20230;-84
2024/02/29 16:58:06;;;;;;;23.77;18.10;;;;;;;10.61;70.31;94559.63;5031990;28;20268;-84
2024/02/29 17:00:32;;;;;;;25.80;18.23;;;;;;;10.56;70.15;94570.56;5033677;28;20209;-84
2024/02/29 17:03:04;;;;;;;27.07;20.83;;;;;;;10.48;70.93;94582.84;5032231;28;20572;-85
2024/02/29 17:05:45;;;;;;;31.17;22.50;;;;;;;10.40;71.31;94596.69;5033739;28;20257;-85
2024/02/29 17:08:30;;;;;;;29.93;21.37;;;;;;;10.41;71.10;94603.41;5033142;28;20788;-85
2024/02/29 17:10:58;;;;;;;27.43;19.37;;;;;;;10.41;71.55;94608.56;5033516;28;20209;-85
2024/02/29 17:13:35;;;;;;;;;;;;;;;;;;;;;
2024/02/29 17:16:03;;;;;;;31.50;21.23;;;;;;;10.38;71.73;94609.00;5036943;28;20240;-85
2024/02/29 17:18:33;;;;;;;29.30;22.93;;;;;;;10.35;71.64;94615.31;5037097;28;20291;-86
2024/02/29 17:21:10;;;;;;;28.97;20.40;;;;;;;10.33;71.97;94625.00;5035544;28;20229;-85
2024/02/29 17:23:38;;;;;;;26.90;19.77;;;;;;;10.30;72.28;94638.25;5036801;28;20201;-85
2024/02/29 17:26:18;;;;;;;28.93;21.47;;;;;;;10.26;72.56;94631.13;5038668;28;20205;-84
2024/02/29 17:28:46;;;;;;;28.23;20.73;;;;;;;10.26;72.65;94634.50;5032015;28;20255;-84
2024/02/29 17:31:45;;;;;;;29.63;19.93;;;;;;;10.26;72.93;94638.84;5028306;28;20842;-84
2024/02/29 17:34:19;;;;;;;31.60;19.97;;;;;;;10.28;72.77;94636.88;5025701;28;20240;-85
2024/02/29 17:36:53;;;;;;;29.83;20.33;;;;;;;10.28;72.35;94637.66;5038474;28;20305;-85
2024/02/29 17:39:34;;;;;;;26.70;19.83;;;;;;;10.25;72.79;94638.06;5038101;28;20202;-84
2024/02/29 17:42:24;;;;;;;27.87;20.30;;;;;;;10.23;73.04;94639.25;5026823;28;20493;-85
2024/02/29 17:44:55;;;;;;;27.73;19.10;;;;;;;10.19;73.12;94649.16;5026379;28;20191;-84
2024/02/29 17:47:25;;;;;;;24.83;18.13;;;;;;;10.17;73.34;94645.97;5030955;28;20226;-84
2024/02/29 17:50:03;;;;;;;27.77;19.40;;;;;;;10.17;73.62;94651.09;5019728;28;20776;-85
2024/02/29 17:52:34;;;;;;;26.43;18.80;;;;;;;10.17;73.50;94651.09;5017061;28;20209;-84
2024/02/29 17:55:10;;;;;;;23.53;18.17;;;;;;;10.18;73.03;94644.19;5032959;28;20256;-85
2024/02/29 17:57:42;;;;;;;27.33;18.47;;;;;;;10.18;73.40;94644.19;5032013;28;20236;-83
2024/02/29 18:00:27;;;;;;;27.80;19.43;;;;;;;10.16;73.46;94641.81;5005309;28;20238;-84
2024/02/29 18:10:05;;;;;;;;;;;;;;;;;;;;;
2024/02/29 18:12:36;;;;;;;25.30;18.97;;;;;;;9.84;74.95;94678.50;4991193;28;20201;-86
2024/02/29 18:15:18;;;;;;;24.33;18.53;;;;;;;9.82;75.31;94668.41;5031381;28;20218;-84
2024/02/29 18:18:22;;;;;;;24.37;18.50;;;;;;;9.81;75.32;94671.22;5027718;28;20230;-85
2024/02/29 18:21:12;;;;;;;27.47;18.60;;;;;;;9.80;75.55;94667.84;5029477;28;20883;-87
2024/02/29 18:23:59;;;;;;;25.47;18.80;;;;;;;9.82;75.12;94665.06;5025836;28;20234;-84
2024/02/29 18:27:01;;;;;;;28.23;19.27;;;;;;;9.82;75.06;94645.28;5032128;28;20200;-83
2024/02/29 18:29:42;;;;;;;29.30;19.03;;;;;;;9.74;74.85;94642.91;5031363;28;20202;-84
2024/02/29 18:32:18;;;;;;;27.13;19.30;;;;;;;9.69;75.03;94637.56;5024638;28;20198;-87
2024/02/29 18:34:55;;;;;;;34.37;20.50;;;;;;;9.66;74.87;94640.50;5020193;28;20221;-86
2024/02/29 18:37:51;;;;;;;24.03;19.23;;;;;;;9.56;75.19;94643.47;5020347;28;20738;-86
2024/02/29 18:43:06;;;;;;;25.00;19.60;;;;;;;9.49;75.44;94646.97;5019454;28;20867;-88
2024/02/29 18:45:40;;;;;;;26.47;19.03;;;;;;;9.50;75.12;94635.72;5024490;28;20189;-85
2024/02/29 18:48:35;;;;;;;25.50;19.10;;;;;;;9.49;75.41;94644.41;5020843;28;20221;-84
2024/02/29 18:51:17;;;;;;;28.63;20.13;;;;;;;9.47;75.23;94636.09;5019210;28;20203;-84
2024/02/29 18:56:40;;;;;;;27.27;19.87;;;;;;;9.43;75.33;94645.19;5021352;28;20218;-86
2024/02/29 18:59:39;;;;;;;28.33;19.83;;;;;;;9.38;75.44;94627.78;5021635;28;20223;-85
2024/02/29 19:02:25;;;;;;;32.33;21.03;;;;;;;9.34;75.31;94616.31;5019376;28;20202;-84
2024/02/29 19:05:28;;;;;;;31.13;20.00;;;;;;;9.30;75.26;94615.09;5028676;28;20225;-84
2024/02/29 19:08:24;;;;;;;30.43;21.00;;;;;;;9.24;75.63;94626.13;5020267;28;20214;-85
2024/02/29 19:10:53;;;;;;;27.77;20.27;;;;;;;9.13;76.05;94642.09;5019782;28;20202;-86
2024/02/29 19:13:19;;;;;;;29.10;20.90;;;;;;;9.12;76.22;94649.00;5022116;28;20281;-84
2024/02/29 19:15:56;;;;;;;31.17;20.67;;;;;;;9.13;76.06;94640.31;5021779;28;20265;-87
2024/02/29 19:19:12;;;;;;;28.63;19.97;;;;;;;9.12;75.86;94630.22;5020062;28;20269;-87
2024/02/29 19:31:31;;;;;;;29.17;19.20;;;;;;;9.02;75.67;94632.38;5019229;28;20271;-85
2024/02/29 19:34:29;;;;;;;30.10;21.27;;;;;;;8.91;76.37;94651.66;5023137;28;20214;-85
2024/02/29 19:37:47;;;;;;;;;;;;;;;;;;;;;
2024/02/29 19:40:46;;;;;;;29.07;20.03;;;;;;;8.96;76.73;94649.31;5023308;28;20301;-84
2024/02/29 19:43:22;;;;;;;28.97;19.73;;;;;;;8.89;77.03;94645.91;5002880;28;20198;-84
2024/02/29 19:45:59;;;;;;;24.77;19.37;;;;;;;8.88;76.92;94646.88;5025628;28;20232;-83
2024/02/29 19:48:26;;;;;;;28.93;20.10;;;;;;;8.85;77.09;94647.28;5023803;28;20225;-84
2024/02/29 19:50:53;;;;;;;33.43;19.30;;;;;;;8.85;76.83;94645.50;5023454;28;20212;-85
2024/02/29 19:53:20;;;;;;;28.10;19.67;;;;;;;8.86;76.74;94636.81;5023124;28;20194;-84
2024/02/29 19:55:48;;;;;;;27.80;19.90;;;;;;;8.89;76.27;94612.53;5028197;28;20268;-85
2024/02/29 19:58:14;;;;;;;29.40;20.50;;;;;;;8.79;76.49;94612.09;5030897;28;20233;-84
2024/02/29 20:00:43;;;;;;;27.50;19.80;;;;;;;8.77;76.46;94612.28;5033426;28;20202;-85
2024/02/29 20:03:09;;;;;;;28.73;20.10;;;;;;;8.79;76.77;94615.47;5033844;28;20195;-84
2024/02/29 20:05:36;;;;;;;27.67;19.87;;;;;;;8.81;77.18;94618.63;5033091;28;20204;-84
2024/02/29 20:08:04;;;;;;;27.00;20.50;;;;;;;8.59;77.76;94614.56;5032566;28;20234;-84
2024/02/29 20:10:31;;;;;;;26.53;19.77;;;;;;;8.56;77.71;94628.53;5017090;28;20796;-85
2024/02/29 20:12:59;;;;;;;31.30;20.37;;;;;;;8.64;78.00;94637.88;5026877;28;20206;-84
2024/02/29 20:15:27;;;;;;;29.43;20.77;;;;;;;8.63;77.57;94624.25;5033360;28;20217;-84
2024/02/29 20:17:55;;;;;;;26.23;20.43;;;;;;;8.56;77.67;94609.78;5036391;28;20214;-84
2024/02/29 20:20:22;;;;;;;29.97;20.43;;;;;;;8.50;78.03;94623.38;5036190;28;20206;-84
2024/02/29 20:22:58;;;;;;;29.80;20.20;;;;;;;8.53;77.69;94639.19;5036098;28;20229;-84
2024/02/29 20:25:25;;;;;;;31.63;19.97;;;;;;;8.54;77.76;94629.72;5036674;28;20201;-84
2024/02/29 20:27:51;;;;;;;30.03;21.47;;;;;;;8.52;78.06;94627.31;5034863;28;20222;-85
2024/02/29 20:30:19;;;;;;;34.37;22.03;;;;;;;8.56;77.80;94620.06;5036750;28;20232;-85
2024/02/29 20:32:48;;;;;;;26.73;20.47;;;;;;;8.55;77.20;94610.78;5035802;28;20201;-85
2024/02/29 20:35:15;;;;;;;31.33;21.03;;;;;;;8.51;77.04;94610.34;5036966;28;20226;-84
2024/02/29 20:37:41;;;;;;;29.23;21.20;;;;;;;8.43;77.12;94600.25;5029177;28;20230;-84
2024/02/29 20:40:09;;;;;;;28.50;20.43;;;;;;;8.36;77.56;94616.56;5027699;28;20205;-84
2024/02/29 20:42:35;;;;;;;32.70;21.83;;;;;;;8.30;77.84;94630.88;5036041;28;20194;-84
2024/02/29 20:45:04;;;;;;;31.13;20.13;;;;;;;8.22;78.39;94636.16;5031453;28;20206;-84
2024/02/29 20:47:32;;;;;;;26.57;20.40;;;;;;;8.19;79.16;94652.69;5034361;28;20226;-84
2024/02/29 20:49:58;;;;;;;29.33;21.27;;;;;;;8.25;78.74;94646.84;5036691;28;20233;-85
2024/02/29 20:52:25;;;;;;;26.17;20.13;;;;;;;8.30;78.43;94641.94;5036423;28;20210;-84
2024/02/29 20:54:52;;;;;;;28.83;19.67;;;;;;;8.26;78.59;94634.81;5036432;28;20202;-84
2024/02/29 20:57:21;;;;;;;31.00;20.67;;;;;;;8.18;78.78;94632.38;5035688;28;20226;-84
2024/02/29 20:59:49;;;;;;;33.53;22.10;;;;;;;8.11;79.00;94628.94;5036009;28;20694;-85
2024/02/29 21:02:18;;;;;;;31.10;21.53;;;;;;;8.13;79.04;94632.13;5033338;28;20854;-85